createdAt,value
2022-11-27T00:03:51.421Z,20.80
2022-11-27T00:06:20.814Z,20.75
2022-11-27T00:08:48.378Z,21.58
2022-11-27T00:11:18.141Z,23.50
2022-11-27T00:13:46.109Z,24.15
2022-11-27T00:16:14.450Z,26.85
2022-11-27T00:18:43.385Z,25.13
2022-11-27T00:21:16.735Z,25.70
2022-11-27T00:23:44.140Z,22.90
2022-11-27T00:26:11.732Z,20.75
2022-11-27T00:28:39.229Z,22.63
2022-11-27T00:31:12.423Z,25.10
2022-11-27T00:33:39.768Z,26.38
2022-11-27T00:36:08.206Z,29.77
2022-11-27T00:38:38.951Z,30.40
2022-11-27T00:41:19.472Z,30.42
2022-11-27T00:43:46.959Z,31.85
2022-11-27T00:46:15.428Z,30.48
2022-11-27T00:48:43.236Z,31.58
2022-11-27T00:51:14.012Z,35.55
2022-11-27T00:53:41.166Z,34.63
2022-11-27T00:56:08.633Z,32.65
2022-11-27T00:58:35.805Z,30.17
2022-11-27T01:01:07.496Z,30.27
2022-11-27T01:03:35.707Z,29.00
2022-11-27T01:06:07.179Z,30.60
2022-11-27T01:08:34.725Z,30.02
2022-11-27T01:11:02.519Z,30.00
2022-11-27T01:13:32.531Z,30.55
2022-11-27T01:16:17.946Z,30.83
2022-11-27T01:18:46.833Z,38.17
2022-11-27T01:21:16.337Z,29.92
2022-11-27T01:23:43.678Z,29.60
2022-11-27T01:29:12.033Z,26.65
2022-11-27T01:31:39.283Z,25.20
2022-11-27T01:34:11.861Z,21.60
2022-11-27T01:36:38.972Z,21.67
2022-11-27T01:39:05.936Z,21.70
2022-11-27T01:41:39.990Z,22.75
2022-11-27T01:44:25.401Z,20.30
2022-11-27T01:47:00.536Z,22.40
2022-11-27T01:49:39.895Z,21.67
2022-11-27T01:52:24.279Z,22.60
2022-11-27T01:55:06.317Z,22.05
2022-11-27T01:57:43.966Z,25.40
2022-11-27T02:00:14.269Z,26.77
2022-11-27T02:02:42.402Z,24.45
2022-11-27T02:05:10.858Z,26.60
2022-11-27T02:07:38.240Z,25.77
2022-11-27T02:10:06.807Z,25.55
2022-11-27T02:12:56.648Z,26.75
2022-11-27T02:15:37.258Z,24.10
2022-11-27T02:18:07.110Z,25.08
2022-11-27T02:20:59.361Z,26.38
2022-11-27T02:23:52.285Z,24.77
2022-11-27T02:26:31.518Z,24.45
2022-11-27T02:31:45.874Z,22.13
2022-11-27T02:35:10.321Z,22.00
2022-11-27T02:37:46.762Z,21.70
2022-11-27T02:40:39.011Z,22.88
2022-11-27T02:43:11.618Z,24.27
2022-11-27T02:45:48.256Z,24.45
2022-11-27T02:48:18.414Z,22.00
2022-11-27T02:50:48.298Z,24.10
2022-11-27T02:53:21.203Z,22.90
2022-11-27T02:55:50.585Z,23.83
2022-11-27T02:58:22.154Z,23.73
2022-11-27T03:00:50.493Z,22.92
2022-11-27T03:03:22.273Z,22.20
2022-11-27T03:05:52.541Z,24.15
2022-11-27T03:08:39.127Z,24.33
2022-11-27T03:11:09.974Z,25.58
2022-11-27T03:13:47.246Z,24.38
2022-11-27T03:16:49.765Z,25.42
2022-11-27T03:19:19.547Z,23.25
2022-11-27T03:21:48.626Z,24.13
2022-11-27T03:24:15.609Z,24.42
2022-11-27T03:26:43.759Z,23.75
2022-11-27T03:29:36.608Z,26.90
2022-11-27T03:32:04.860Z,23.88
2022-11-27T03:34:32.721Z,23.35
2022-11-27T03:37:00.900Z,23.17
2022-11-27T03:39:29.617Z,22.77
2022-11-27T03:42:15.667Z,21.95
2022-11-27T03:44:53.629Z,23.15
2022-11-27T03:47:29.725Z,21.52
2022-11-27T03:50:09.024Z,23.50
2022-11-27T03:52:43.117Z,23.52
2022-11-27T03:55:25.861Z,24.20
2022-11-27T03:57:57.480Z,24.00
2022-11-27T04:00:33.100Z,21.95
2022-11-27T04:03:00.316Z,21.80
2022-11-27T04:05:27.254Z,23.45
2022-11-27T04:07:54.155Z,21.65
2022-11-27T04:10:21.697Z,22.35
2022-11-27T04:12:48.490Z,22.63
2022-11-27T04:15:15.502Z,20.65
2022-11-27T04:17:42.407Z,23.67
2022-11-27T04:20:12.802Z,23.50
2022-11-27T04:22:40.025Z,22.70
2022-11-27T04:25:07.228Z,24.27
2022-11-27T04:27:34.245Z,22.58
2022-11-27T04:30:01.239Z,22.02
2022-11-27T04:32:30.440Z,20.80
2022-11-27T04:34:57.359Z,21.90
2022-11-27T04:37:24.235Z,23.20
2022-11-27T04:39:51.182Z,23.50
2022-11-27T04:42:26.163Z,22.73
2022-11-27T04:44:58.106Z,22.35
2022-11-27T04:47:25.466Z,23.05
2022-11-27T04:49:52.450Z,22.83
2022-11-27T04:52:19.609Z,22.77
2022-11-27T04:54:46.562Z,22.55
2022-11-27T04:57:13.593Z,23.20
2022-11-27T04:59:41.197Z,23.48
2022-11-27T05:02:08.253Z,24.42
2022-11-27T05:04:35.228Z,23.00
2022-11-27T05:07:02.144Z,24.00
2022-11-27T05:09:29.102Z,22.48
2022-11-27T05:11:56.177Z,23.85
2022-11-27T05:14:28.944Z,24.73
2022-11-27T05:16:58.592Z,24.67
2022-11-27T05:19:28.430Z,24.08
2022-11-27T05:21:56.382Z,25.45
2022-11-27T05:24:25.990Z,24.23
2022-11-27T05:26:53.083Z,24.30
2022-11-27T05:29:20.585Z,25.83
2022-11-27T05:31:47.926Z,23.40
2022-11-27T05:34:15.183Z,25.25
2022-11-27T05:36:42.796Z,24.17
2022-11-27T05:39:11.338Z,24.92
2022-11-27T05:41:41.307Z,24.60
2022-11-27T05:44:13.608Z,24.50
2022-11-27T05:46:43.863Z,25.85
2022-11-27T05:49:13.949Z,25.15
2022-11-27T05:51:43.270Z,25.38
2022-11-27T05:54:13.522Z,25.25
2022-11-27T05:56:40.394Z,23.77
2022-11-27T05:59:07.328Z,24.77
2022-11-27T06:01:34.445Z,25.13
2022-11-27T06:04:01.564Z,25.20
2022-11-27T06:06:28.628Z,23.98
2022-11-27T06:08:55.554Z,24.30
2022-11-27T06:11:22.954Z,24.17
2022-11-27T06:13:50.370Z,24.73
2022-11-27T06:16:22.934Z,24.85
2022-11-27T06:18:51.916Z,22.67
2022-11-27T06:21:20.087Z,23.52
2022-11-27T06:23:47.078Z,24.42
2022-11-27T06:26:20.714Z,23.50
2022-11-27T06:28:48.700Z,24.85
2022-11-27T06:31:20.755Z,23.13
2022-11-27T06:33:49.144Z,23.00
2022-11-27T06:36:17.506Z,24.13
2022-11-27T06:38:45.220Z,22.90
2022-11-27T06:41:15.297Z,22.63
2022-11-27T06:43:42.798Z,22.95
2022-11-27T06:46:15.482Z,21.17
2022-11-27T06:48:44.650Z,22.02
2022-11-27T06:51:14.265Z,21.65
2022-11-27T06:53:41.910Z,23.02
2022-11-27T06:56:20.148Z,24.90
2022-11-27T06:58:47.143Z,22.63
2022-11-27T07:01:16.610Z,24.25
2022-11-27T07:03:44.633Z,23.50
2022-11-27T07:06:15.426Z,22.98
2022-11-27T07:08:43.156Z,24.65
2022-11-27T07:11:19.353Z,24.55
2022-11-27T07:13:47.428Z,23.45
2022-11-27T07:16:15.424Z,22.60
2022-11-27T07:18:51.273Z,24.50
2022-11-27T07:21:18.145Z,23.60
2022-11-27T07:23:45.913Z,24.58
2022-11-27T07:26:15.421Z,24.75
2022-11-27T07:28:46.031Z,25.90
2022-11-27T07:31:21.067Z,25.67
2022-11-27T07:33:48.429Z,25.40
2022-11-27T07:36:25.080Z,24.92
2022-11-27T07:38:52.281Z,25.60
2022-11-27T07:41:19.152Z,26.83
2022-11-27T07:43:46.903Z,25.02
2022-11-27T07:46:24.488Z,25.08
2022-11-27T07:48:51.989Z,26.15
2022-11-27T07:51:20.797Z,25.42
2022-11-27T07:53:48.694Z,28.55
2022-11-27T07:56:16.874Z,27.98
2022-11-27T07:58:44.704Z,27.65
2022-11-27T08:01:18.692Z,26.98
2022-11-27T08:03:46.388Z,27.25
2022-11-27T08:06:15.976Z,27.00
2022-11-27T08:08:47.660Z,25.75
2022-11-27T08:11:24.668Z,27.38
2022-11-27T08:14:05.459Z,25.48
2022-11-27T08:16:35.012Z,26.65
2022-11-27T08:19:02.517Z,27.88
2022-11-27T08:21:30.082Z,26.67
2022-11-27T08:23:58.215Z,28.27
2022-11-27T08:26:27.640Z,27.10
2022-11-27T08:31:23.305Z,27.55
2022-11-27T08:33:50.712Z,27.65
2022-11-27T08:36:18.241Z,26.38
2022-11-27T08:38:46.560Z,29.08
2022-11-27T08:41:13.695Z,27.65
2022-11-27T08:43:40.829Z,29.13
2022-11-27T08:46:08.472Z,27.30
2022-11-27T08:48:35.650Z,30.63
2022-11-27T08:51:11.935Z,31.80
2022-11-27T08:53:39.485Z,32.30
2022-11-27T08:56:13.924Z,32.35
2022-11-27T08:58:41.291Z,33.05
2022-11-27T09:01:11.003Z,32.92
2022-11-27T09:03:38.717Z,37.17
2022-11-27T09:06:11.117Z,34.00
2022-11-27T09:08:39.721Z,32.38
2022-11-27T09:11:07.388Z,35.17
2022-11-27T09:13:37.173Z,36.10
2022-11-27T09:16:05.776Z,41.92
2022-11-27T09:18:33.340Z,41.27
2022-11-27T09:21:02.696Z,43.17
2022-11-27T09:23:30.146Z,38.80
2022-11-27T09:26:05.093Z,38.10
2022-11-27T09:28:33.262Z,41.72
2022-11-27T09:31:02.021Z,37.13
2022-11-27T09:33:30.860Z,36.72
2022-11-27T09:35:57.997Z,35.33
2022-11-27T09:38:25.066Z,35.05
2022-11-27T09:41:00.412Z,33.30
2022-11-27T09:43:34.581Z,32.70
2022-11-27T09:46:09.322Z,32.67
2022-11-27T09:48:42.533Z,46.30
2022-11-27T09:51:20.059Z,37.50
2022-11-27T09:53:58.665Z,41.72
2022-11-27T09:56:35.218Z,39.97
2022-11-27T09:59:08.709Z,31.92
2022-11-27T10:01:46.203Z,32.28
2022-11-27T10:04:19.049Z,34.78
2022-11-27T10:07:07.167Z,34.97
2022-11-27T10:09:55.431Z,34.92
2022-11-27T10:12:40.735Z,30.60
2022-11-27T10:15:13.947Z,29.42
2022-11-27T10:17:53.821Z,33.47
2022-11-27T10:20:47.669Z,31.70
2022-11-27T10:23:14.557Z,30.73
2022-11-27T10:25:47.972Z,31.23
2022-11-27T10:28:30.266Z,30.25
2022-11-27T10:31:11.838Z,27.95
2022-11-27T10:33:45.182Z,27.27
2022-11-27T10:36:19.085Z,27.17
2022-11-27T10:38:48.284Z,30.60
2022-11-27T10:44:30.866Z,30.52
2022-11-27T10:47:15.425Z,28.65
2022-11-27T10:50:01.898Z,30.70
2022-11-27T10:52:30.935Z,30.85
2022-11-27T10:55:02.671Z,31.33
2022-11-27T10:57:44.134Z,31.67
2022-11-27T11:00:28.266Z,28.33
2022-11-27T11:03:04.201Z,29.35
2022-11-27T11:05:45.500Z,27.90
2022-11-27T11:08:21.383Z,28.95
2022-11-27T11:10:59.908Z,28.52
2022-11-27T11:13:32.381Z,29.25
2022-11-27T11:15:59.391Z,27.13
2022-11-27T11:18:32.426Z,23.55
2022-11-27T11:21:03.012Z,24.70
2022-11-27T11:23:36.247Z,24.30
2022-11-27T11:26:14.687Z,23.27
2022-11-27T11:28:50.620Z,22.70
2022-11-27T11:31:21.284Z,21.83
2022-11-27T11:34:21.053Z,20.10
2022-11-27T11:37:04.426Z,20.10
2022-11-27T11:39:44.529Z,18.83
2022-11-27T11:42:23.637Z,16.45
2022-11-27T11:45:04.347Z,16.77
2022-11-27T11:47:31.807Z,17.65
2022-11-27T11:49:59.287Z,16.67
2022-11-27T11:52:59.617Z,16.83
2022-11-27T11:55:34.677Z,15.13
2022-11-27T11:58:31.103Z,16.20
2022-11-27T12:01:26.559Z,17.23
2022-11-27T12:04:18.952Z,16.67
2022-11-27T12:07:07.846Z,15.18
2022-11-27T12:10:06.221Z,15.95
2022-11-27T12:12:57.024Z,17.33
2022-11-27T12:15:46.582Z,16.17
2022-11-27T12:18:41.665Z,15.88
2022-11-27T12:21:17.993Z,16.88
2022-11-27T12:23:57.964Z,16.30
2022-11-27T12:26:37.119Z,16.02
2022-11-27T12:29:38.567Z,14.32
2022-11-27T12:32:28.457Z,17.10
2022-11-27T12:35:24.754Z,15.63
2022-11-27T12:38:22.790Z,16.67
2022-11-27T12:41:27.361Z,16.08
2022-11-27T12:44:00.132Z,17.10
2022-11-27T12:46:27.164Z,16.80
2022-11-27T12:49:03.731Z,17.00
2022-11-27T12:51:43.412Z,16.55
2022-11-27T12:56:49.792Z,18.13
2022-11-27T12:59:23.292Z,17.48
2022-11-27T13:02:01.732Z,17.45
2022-11-27T13:05:02.649Z,17.33
2022-11-27T13:07:53.796Z,18.17
2022-11-27T13:10:32.088Z,17.85
2022-11-27T13:13:34.303Z,18.63
2022-11-27T13:16:07.673Z,18.73
2022-11-27T13:18:43.964Z,18.63
2022-11-27T13:21:17.419Z,19.23
2022-11-27T13:23:44.794Z,17.77
2022-11-27T13:26:26.657Z,18.63
2022-11-27T13:28:59.425Z,19.60
2022-11-27T13:31:31.726Z,17.92
2022-11-27T13:34:02.580Z,17.58
2022-11-27T13:37:02.048Z,18.38
2022-11-27T13:39:35.447Z,16.50
2022-11-27T13:42:11.774Z,15.98
2022-11-27T13:44:44.320Z,16.02
2022-11-27T13:47:16.726Z,15.50
2022-11-27T13:49:43.938Z,18.10
2022-11-27T13:52:14.304Z,17.35
2022-11-27T13:55:07.764Z,15.27
2022-11-27T13:57:34.945Z,14.98
2022-11-27T14:00:12.140Z,16.75
2022-11-27T14:02:44.836Z,16.90
2022-11-27T14:05:18.518Z,16.10
2022-11-27T14:07:51.991Z,15.60
2022-11-27T14:10:24.676Z,15.23
2022-11-27T14:13:08.593Z,15.40
2022-11-27T14:15:37.752Z,15.60
2022-11-27T14:18:17.990Z,15.80
2022-11-27T14:20:52.508Z,14.32
2022-11-27T14:23:48.160Z,12.98
2022-11-27T14:26:15.660Z,14.32
2022-11-27T14:28:45.377Z,13.77
2022-11-27T14:31:28.773Z,12.73
2022-11-27T14:36:43.839Z,12.10
2022-11-27T14:39:24.034Z,12.05
2022-11-27T14:42:05.688Z,12.05
2022-11-27T14:44:33.221Z,11.73
2022-11-27T14:47:06.763Z,12.07
2022-11-27T14:49:34.917Z,10.93
2022-11-27T14:52:06.835Z,12.27
2022-11-27T14:54:39.301Z,11.88
2022-11-27T14:57:11.107Z,12.38
2022-11-27T14:59:40.048Z,11.32
2022-11-27T15:02:07.317Z,10.20
2022-11-27T15:04:39.807Z,11.05
2022-11-27T15:07:18.783Z,9.18
2022-11-27T15:09:49.913Z,8.18
2022-11-27T15:12:21.302Z,9.07
2022-11-27T15:15:00.199Z,8.85
2022-11-27T15:17:34.284Z,7.80
2022-11-27T15:20:04.195Z,6.25
2022-11-27T15:22:33.423Z,6.05
2022-11-27T15:25:06.058Z,6.70
2022-11-27T15:27:45.564Z,6.40
2022-11-27T15:30:18.066Z,6.32
2022-11-27T15:32:51.667Z,6.18
2022-11-27T15:35:29.259Z,5.82
2022-11-27T15:37:58.146Z,5.95
2022-11-27T15:40:28.499Z,6.53
2022-11-27T15:42:55.399Z,5.55
2022-11-27T15:45:23.388Z,5.90
2022-11-27T15:47:58.210Z,6.63
2022-11-27T15:50:25.376Z,7.38
2022-11-27T15:52:52.521Z,8.07
2022-11-27T15:55:19.847Z,7.32
2022-11-27T15:57:47.079Z,7.68
2022-11-27T16:00:15.103Z,7.32
2022-11-27T16:02:42.315Z,6.95
2022-11-27T16:05:09.484Z,7.32
2022-11-27T16:07:36.749Z,7.47
2022-11-27T16:10:04.061Z,8.10
2022-11-27T16:12:31.162Z,8.40
2022-11-27T16:14:59.417Z,8.13
2022-11-27T16:17:26.463Z,8.70
2022-11-27T16:19:53.601Z,8.07
2022-11-27T16:22:20.651Z,7.93
2022-11-27T16:24:47.618Z,7.40
2022-11-27T16:27:14.560Z,6.80
2022-11-27T16:29:41.725Z,6.72
2022-11-27T16:32:09.170Z,7.60
2022-11-27T16:34:37.004Z,7.10
2022-11-27T16:37:03.968Z,7.20
2022-11-27T16:39:31.327Z,6.43
2022-11-27T16:41:58.466Z,5.70
2022-11-27T16:44:25.706Z,7.40
2022-11-27T16:46:53.768Z,7.68
2022-11-27T16:49:21.888Z,8.68
2022-11-27T16:51:50.213Z,9.50
2022-11-27T16:54:18.553Z,9.95
2022-11-27T16:56:46.519Z,9.98
2022-11-27T16:59:15.083Z,12.65
2022-11-27T17:01:44.234Z,12.25
2022-11-27T17:04:20.099Z,13.30
2022-11-27T17:06:48.962Z,13.73
2022-11-27T17:09:16.592Z,13.00
2022-11-27T17:11:48.487Z,11.77
2022-11-27T17:14:16.434Z,13.23
2022-11-27T17:16:43.625Z,12.00
2022-11-27T17:19:15.567Z,11.40
2022-11-27T17:21:44.501Z,11.73
2022-11-27T17:24:15.214Z,10.95
2022-11-27T17:26:46.394Z,11.18
2022-11-27T17:29:16.869Z,11.70
2022-11-27T17:31:44.643Z,10.43
2022-11-27T17:34:14.224Z,10.35
2022-11-27T17:36:43.201Z,11.05
2022-11-27T17:39:15.196Z,11.27
2022-11-27T17:41:44.891Z,12.07
2022-11-27T17:46:40.001Z,10.98
2022-11-27T17:49:08.157Z,9.88
2022-11-27T17:51:36.705Z,8.75
2022-11-27T17:54:05.487Z,10.87
2022-11-27T17:56:33.719Z,10.55
2022-11-27T17:59:01.814Z,15.63
2022-11-27T18:01:30.657Z,11.82
2022-11-27T18:04:01.041Z,12.32
2022-11-27T18:06:30.624Z,9.20
2022-11-27T18:08:59.898Z,8.10
2022-11-27T18:11:29.864Z,7.80
2022-11-27T18:13:59.343Z,8.85
2022-11-27T18:16:30.391Z,8.93
2022-11-27T18:18:59.138Z,9.35
2022-11-27T18:21:27.335Z,9.60
2022-11-27T18:29:29.761Z,7.57
2022-11-27T18:31:56.849Z,8.15
2022-11-27T18:34:23.853Z,7.70
2022-11-27T18:36:50.983Z,5.95
2022-11-27T18:39:18.201Z,6.82
2022-11-27T18:41:45.308Z,8.10
2022-11-27T18:44:12.171Z,7.22
2022-11-27T18:46:39.645Z,5.38
2022-11-27T18:49:06.895Z,6.40
2022-11-27T18:51:33.910Z,5.80
2022-11-27T18:54:02.382Z,5.47
2022-11-27T18:56:30.930Z,8.02
2022-11-27T19:01:40.945Z,5.53
2022-11-27T19:04:10.619Z,5.68
2022-11-27T19:06:39.295Z,6.70
2022-11-27T19:09:06.902Z,6.18
2022-11-27T19:11:35.153Z,6.53
2022-11-27T19:14:03.909Z,6.68
2022-11-27T19:16:34.425Z,8.13
2022-11-27T19:19:03.457Z,9.80
2022-11-27T19:21:32.734Z,7.40
2022-11-27T19:24:02.580Z,7.45
2022-11-27T19:26:33.251Z,7.68
2022-11-27T19:29:03.656Z,8.55
2022-11-27T19:31:33.461Z,7.95
2022-11-27T19:34:02.355Z,8.13
2022-11-27T19:36:31.340Z,8.98
2022-11-27T19:39:03.429Z,9.27
2022-11-27T19:41:31.282Z,9.00
2022-11-27T19:44:01.695Z,8.75
2022-11-27T19:46:31.669Z,9.13
2022-11-27T19:49:04.792Z,9.88
2022-11-27T19:51:35.123Z,9.27
2022-11-27T19:54:09.675Z,10.13
2022-11-27T19:56:40.419Z,9.38
2022-11-27T19:59:08.721Z,10.38
2022-11-27T20:01:37.772Z,10.32
2022-11-27T20:04:05.672Z,11.80
2022-11-27T20:06:32.779Z,11.13
2022-11-27T20:09:02.240Z,11.23
2022-11-27T20:11:34.542Z,12.95
2022-11-27T20:14:05.179Z,20.67
2022-11-27T20:19:02.215Z,10.77
2022-11-27T20:21:29.177Z,10.07
2022-11-27T20:23:57.878Z,10.93
2022-11-27T20:26:27.288Z,10.48
2022-11-27T20:28:54.823Z,9.45
2022-11-27T20:31:25.035Z,10.07
2022-11-27T20:33:56.079Z,9.63
2022-11-27T20:36:24.899Z,9.02
2022-11-27T20:38:55.674Z,8.55
2022-11-27T20:41:24.202Z,9.23
2022-11-27T20:44:00.044Z,8.18
2022-11-27T20:46:29.295Z,10.07
2022-11-27T20:48:56.932Z,9.45
2022-11-27T20:51:28.566Z,17.60
2022-11-27T20:53:57.676Z,10.38
2022-11-27T20:56:25.671Z,9.60
2022-11-27T20:58:53.935Z,8.65
2022-11-27T21:01:26.336Z,8.73
2022-11-27T21:03:55.716Z,8.57
2022-11-27T21:06:27.254Z,7.32
2022-11-27T21:08:55.317Z,8.50
2022-11-27T21:11:25.829Z,8.60
2022-11-27T21:13:58.353Z,8.32
2022-11-27T21:16:27.704Z,9.05
2022-11-27T21:18:56.713Z,8.30
2022-11-27T21:21:24.085Z,8.88
2022-11-27T21:23:51.442Z,8.52
2022-11-27T21:26:18.917Z,8.80
2022-11-27T21:28:46.664Z,7.80
2022-11-27T21:31:17.303Z,8.48
2022-11-27T21:33:49.784Z,8.27
2022-11-27T21:36:17.759Z,8.30
2022-11-27T21:38:45.808Z,8.63
2022-11-27T21:41:14.081Z,9.52
2022-11-27T21:43:41.492Z,9.45
2022-11-27T21:46:17.856Z,9.52
2022-11-27T21:48:49.998Z,9.50
2022-11-27T21:51:21.069Z,9.95
2022-11-27T21:53:51.358Z,9.48
2022-11-27T21:56:20.904Z,9.85
2022-11-27T21:58:49.645Z,10.02
2022-11-27T22:01:22.105Z,8.57
2022-11-27T22:03:54.953Z,12.15
2022-11-27T22:06:24.943Z,11.85
2022-11-27T22:08:54.957Z,10.02
2022-11-27T22:11:24.776Z,10.73
2022-11-27T22:13:52.383Z,9.45
2022-11-27T22:16:25.904Z,12.52
2022-11-27T22:19:04.842Z,9.77
2022-11-27T22:21:33.234Z,9.23
2022-11-27T22:24:02.186Z,8.85
2022-11-27T22:26:29.564Z,9.32
2022-11-27T22:28:58.721Z,9.82
2022-11-27T22:31:31.209Z,10.00
2022-11-27T22:33:58.975Z,10.10
2022-11-27T22:36:30.726Z,10.25
2022-11-27T22:39:00.774Z,10.20
2022-11-27T22:41:29.676Z,10.43
2022-11-27T22:44:00.320Z,10.15
2022-11-27T22:46:35.513Z,10.90
2022-11-27T22:49:05.870Z,10.70
2022-11-27T22:51:35.713Z,10.70
2022-11-27T22:54:04.478Z,11.25
2022-11-27T22:56:33.872Z,11.27
2022-11-27T22:59:30.601Z,10.25
2022-11-27T23:01:49.812Z,11.50
2022-11-27T23:04:16.968Z,11.27
2022-11-27T23:06:48.608Z,10.90
2022-11-27T23:09:18.175Z,11.88
2022-11-27T23:11:45.438Z,11.10
2022-11-27T23:14:12.727Z,10.63
2022-11-27T23:16:39.761Z,11.90
2022-11-27T23:19:06.990Z,14.40
2022-11-27T23:21:37.415Z,12.82
2022-11-27T23:24:05.890Z,10.43
2022-11-27T23:26:32.945Z,11.68
2022-11-27T23:29:00.005Z,10.77
2022-11-27T23:31:31.512Z,9.18
2022-11-27T23:34:01.961Z,10.20
2022-11-27T23:36:31.457Z,10.82
2022-11-27T23:41:30.006Z,9.80
2022-11-27T23:43:58.135Z,10.30
2022-11-27T23:46:27.876Z,9.95
2022-11-27T23:48:57.461Z,9.95
2022-11-27T23:51:27.912Z,10.00
2022-11-27T23:53:55.182Z,9.82
2022-11-27T23:56:33.758Z,9.15
2022-11-27T23:59:07.203Z,9.15
